Bizerte, Sidi Ahmed Air Base (DTTB)

NameSidi Ahmed Air Base
CityBizerte
CountryTunisia
ICAODTTB
IATAQIZ
Altitude6 m
CoordinatesGoogle Map
Live Air TrafficLiveATC.net
METARDTTB 160200Z 00000KT 9999 FEW020 18/17 Q1017
2019-06-16 02:00:00 Wind: North (0°) 0 m/s - Visibility: > 10000 m - Temperature: 18 °C - Dew point: 17 °C - Humidity: 93.9% - Pressure: 1017 hPa

Sorry, no flights used the airport in this database.